sensor_id;sensor_type;location;lat;lon;timestamp;pressure;altitude;pressure_sealevel;temperature;humidity
81107;BME280;70588;53.172;8.620;2023-06-14T00:00:35;101587.97;;;20.25;41.98
81107;BME280;70588;53.172;8.620;2023-06-14T00:03:02;101592.63;;;20.25;42.87
81107;BME280;70588;53.172;8.620;2023-06-14T00:05:29;101587.84;;;20.20;42.61
81107;BME280;70588;53.172;8.620;2023-06-14T00:07:55;101586.66;;;20.16;42.53
81107;BME280;70588;53.172;8.620;2023-06-14T00:10:20;101584.41;;;20.13;42.93
81107;BME280;70588;53.172;8.620;2023-06-14T00:12:46;101584.03;;;20.09;42.78
81107;BME280;70588;53.172;8.620;2023-06-14T00:15:11;101596.31;;;20.07;42.96
81107;BME280;70588;53.172;8.620;2023-06-14T00:17:37;101594.88;;;20.04;43.63
81107;BME280;70588;53.172;8.620;2023-06-14T00:20:05;101597.59;;;20.04;43.28
81107;BME280;70588;53.172;8.620;2023-06-14T00:22:31;101595.22;;;19.96;43.33
81107;BME280;70588;53.172;8.620;2023-06-14T00:24:58;101594.88;;;19.92;42.95
81107;BME280;70588;53.172;8.620;2023-06-14T00:27:23;101595.09;;;19.91;44.26
81107;BME280;70588;53.172;8.620;2023-06-14T00:29:50;101598.91;;;19.90;43.87
81107;BME280;70588;53.172;8.620;2023-06-14T00:32:15;101597.72;;;19.86;43.74
81107;BME280;70588;53.172;8.620;2023-06-14T00:34:40;101599.25;;;19.82;43.99
81107;BME280;70588;53.172;8.620;2023-06-14T00:37:06;101612.94;;;19.82;44.34
81107;BME280;70588;53.172;8.620;2023-06-14T00:39:31;101603.53;;;19.78;44.34
81107;BME280;70588;53.172;8.620;2023-06-14T00:41:57;101605.66;;;19.76;44.20
81107;BME280;70588;53.172;8.620;2023-06-14T00:44:22;101602.09;;;19.75;44.34
81107;BME280;70588;53.172;8.620;2023-06-14T00:46:48;101606.16;;;19.72;44.77
81107;BME280;70588;53.172;8.620;2023-06-14T00:49:14;101603.00;;;19.69;45.11
81107;BME280;70588;53.172;8.620;2023-06-14T00:51:44;101608.91;;;19.72;44.60
81107;BME280;70588;53.172;8.620;2023-06-14T00:54:10;101606.69;;;19.63;44.77
81107;BME280;70588;53.172;8.620;2023-06-14T00:56:36;101611.56;;;19.61;45.16
81107;BME280;70588;53.172;8.620;2023-06-14T00:59:02;101619.78;;;19.61;44.89
81107;BME280;70588;53.172;8.620;2023-06-14T01:01:29;101612.63;;;19.60;44.88
81107;BME280;70588;53.172;8.620;2023-06-14T01:03:57;101619.41;;;19.57;45.41
81107;BME280;70588;53.172;8.620;2023-06-14T01:09:18;101606.31;;;19.59;44.99
81107;BME280;70588;53.172;8.620;2023-06-14T01:11:52;101608.91;;;19.54;45.27
81107;BME280;70588;53.172;8.620;2023-06-14T01:14:20;101611.16;;;19.45;45.33
81107;BME280;70588;53.172;8.620;2023-06-14T01:16:47;101609.72;;;19.43;45.83
81107;BME280;70588;53.172;8.620;2023-06-14T01:19:14;101607.81;;;19.43;45.72
81107;BME280;70588;53.172;8.620;2023-06-14T01:21:40;101619.47;;;19.39;46.03
81107;BME280;70588;53.172;8.620;2023-06-14T01:24:08;101620.50;;;19.38;45.95
81107;BME280;70588;53.172;8.620;2023-06-14T01:26:34;101621.00;;;19.35;46.01
81107;BME280;70588;53.172;8.620;2023-06-14T01:29:01;101624.78;;;19.33;46.21
81107;BME280;70588;53.172;8.620;2023-06-14T01:31:26;101613.69;;;19.28;45.86
81107;BME280;70588;53.172;8.620;2023-06-14T01:33:52;101622.97;;;19.27;46.29
81107;BME280;70588;53.172;8.620;2023-06-14T01:36:22;101613.00;;;19.33;45.83
81107;BME280;70588;53.172;8.620;2023-06-14T01:38:48;101614.38;;;19.24;46.32
81107;BME280;70588;53.172;8.620;2023-06-14T01:41:16;101619.84;;;19.24;46.52
81107;BME280;70588;53.172;8.620;2023-06-14T01:43:43;101617.59;;;19.21;46.34
81107;BME280;70588;53.172;8.620;2023-06-14T01:46:09;101610.66;;;19.18;46.81
81107;BME280;70588;53.172;8.620;2023-06-14T01:48:36;101617.44;;;19.16;46.48
81107;BME280;70588;53.172;8.620;2023-06-14T01:51:01;101622.31;;;19.13;46.11
81107;BME280;70588;53.172;8.620;2023-06-14T01:53:26;101625.88;;;19.14;46.77
81107;BME280;70588;53.172;8.620;2023-06-14T01:55:52;101624.44;;;19.11;47.12
81107;BME280;70588;53.172;8.620;2023-06-14T01:58:19;101626.78;;;19.08;46.70
81107;BME280;70588;53.172;8.620;2023-06-14T02:00:44;101619.88;;;19.05;46.78
81107;BME280;70588;53.172;8.620;2023-06-14T02:03:11;101619.50;;;19.02;47.04
81107;BME280;70588;53.172;8.620;2023-06-14T02:05:37;101624.38;;;19.00;46.77
81107;BME280;70588;53.172;8.620;2023-06-14T02:08:04;101624.84;;;18.97;46.95
81107;BME280;70588;53.172;8.620;2023-06-14T02:10:29;101629.22;;;18.98;47.17
81107;BME280;70588;53.172;8.620;2023-06-14T02:12:55;101637.06;;;18.94;47.56
81107;BME280;70588;53.172;8.620;2023-06-14T02:15:20;101623.84;;;18.91;47.27
81107;BME280;70588;53.172;8.620;2023-06-14T02:17:47;101627.88;;;18.88;47.37
81107;BME280;70588;53.172;8.620;2023-06-14T02:20:13;101628.94;;;18.87;47.62
81107;BME280;70588;53.172;8.620;2023-06-14T02:22:39;101630.22;;;18.85;47.60
81107;BME280;70588;53.172;8.620;2023-06-14T02:25:04;101631.28;;;18.84;47.55
81107;BME280;70588;53.172;8.620;2023-06-14T02:27:31;101631.75;;;18.81;47.70
81107;BME280;70588;53.172;8.620;2023-06-14T02:29:57;101633.41;;;18.82;47.83
81107;BME280;70588;53.172;8.620;2023-06-14T02:32:22;101634.69;;;18.79;47.82
81107;BME280;70588;53.172;8.620;2023-06-14T02:34:48;101636.19;;;18.75;47.80
81107;BME280;70588;53.172;8.620;2023-06-14T02:37:15;101635.38;;;18.74;47.91
81107;BME280;70588;53.172;8.620;2023-06-14T02:39:41;101635.59;;;18.73;47.74
81107;BME280;70588;53.172;8.620;2023-06-14T02:42:06;101651.16;;;18.72;47.82
81107;BME280;70588;53.172;8.620;2023-06-14T02:44:32;101639.63;;;18.70;48.31
81107;BME280;70588;53.172;8.620;2023-06-14T02:46:57;101640.66;;;18.69;47.88
81107;BME280;70588;53.172;8.620;2023-06-14T02:49:24;101644.69;;;18.67;47.67
81107;BME280;70588;53.172;8.620;2023-06-14T02:51:49;101643.00;;;18.66;48.36
81107;BME280;70588;53.172;8.620;2023-06-14T02:54:14;101644.91;;;18.65;47.87
81107;BME280;70588;53.172;8.620;2023-06-14T02:56:40;101646.00;;;18.64;47.88
81107;BME280;70588;53.172;8.620;2023-06-14T02:59:06;101649.78;;;18.63;48.10
81107;BME280;70588;53.172;8.620;2023-06-14T03:01:34;101655.47;;;18.62;48.23
81107;BME280;70588;53.172;8.620;2023-06-14T03:04:03;101663.00;;;18.66;47.91
81107;BME280;70588;53.172;8.620;2023-06-14T03:06:31;101661.31;;;18.65;48.16
81107;BME280;70588;53.172;8.620;2023-06-14T03:08:57;101661.78;;;18.62;48.26
81107;BME280;70588;53.172;8.620;2023-06-14T03:11:30;101671.47;;;18.58;48.11
81107;BME280;70588;53.172;8.620;2023-06-14T03:13:55;101668.38;;;18.54;48.32
81107;BME280;70588;53.172;8.620;2023-06-14T03:16:21;101664.78;;;18.54;48.22
81107;BME280;70588;53.172;8.620;2023-06-14T03:18:52;101664.75;;;18.61;48.32
81107;BME280;70588;53.172;8.620;2023-06-14T03:21:19;101679.06;;;18.56;48.28
81107;BME280;70588;53.172;8.620;2023-06-14T03:23:45;101684.78;;;18.54;48.37
81107;BME280;70588;53.172;8.620;2023-06-14T03:26:11;101677.63;;;18.53;48.80
81107;BME280;70588;53.172;8.620;2023-06-14T03:28:40;101681.66;;;18.51;48.43
81107;BME280;70588;53.172;8.620;2023-06-14T03:31:06;101674.50;;;18.50;48.83
81107;BME280;70588;53.172;8.620;2023-06-14T03:33:32;101690.69;;;18.51;48.60
81107;BME280;70588;53.172;8.620;2023-06-14T03:35:57;101687.97;;;18.51;48.60
81107;BME280;70588;53.172;8.620;2023-06-14T03:38:23;101691.50;;;18.52;48.45
81107;BME280;70588;53.172;8.620;2023-06-14T03:40:48;101682.69;;;18.50;48.45
81107;BME280;70588;53.172;8.620;2023-06-14T03:43:14;101690.69;;;18.51;48.74
81107;BME280;70588;53.172;8.620;2023-06-14T03:45:39;101698.06;;;18.51;48.73
81107;BME280;70588;53.172;8.620;2023-06-14T03:48:05;101690.06;;;18.49;48.65
81107;BME280;70588;53.172;8.620;2023-06-14T03:50:32;101690.69;;;18.51;48.63
81107;BME280;70588;53.172;8.620;2023-06-14T03:52:57;101693.00;;;18.54;48.98
81107;BME280;70588;53.172;8.620;2023-06-14T03:55:23;101693.00;;;18.54;48.66
81107;BME280;70588;53.172;8.620;2023-06-14T03:57:51;101693.34;;;18.58;48.68
81107;BME280;70588;53.172;8.620;2023-06-14T04:00:17;101692.47;;;18.64;48.66
81107;BME280;70588;53.172;8.620;2023-06-14T04:02:43;101690.69;;;18.77;48.47
81107;BME280;70588;53.172;8.620;2023-06-14T04:05:09;101694.84;;;19.04;48.19
81107;BME280;70588;53.172;8.620;2023-06-14T04:07:35;101705.59;;;19.36;47.75
81107;BME280;70588;53.172;8.620;2023-06-14T04:10:06;101708.34;;;19.73;46.91
81107;BME280;70588;53.172;8.620;2023-06-14T04:12:33;101710.13;;;20.09;46.49
81107;BME280;70588;53.172;8.620;2023-06-14T04:14:58;101720.22;;;20.51;45.88
81107;BME280;70588;53.172;8.620;2023-06-14T04:17:24;101717.41;;;20.93;45.02
81107;BME280;70588;53.172;8.620;2023-06-14T04:19:49;101712.56;;;21.36;44.01
81107;BME280;70588;53.172;8.620;2023-06-14T04:22:14;101720.56;;;21.78;43.00
81107;BME280;70588;53.172;8.620;2023-06-14T04:24:40;101716.91;;;22.18;41.93
81107;BME280;70588;53.172;8.620;2023-06-14T04:27:07;101723.03;;;22.54;41.51
81107;BME280;70588;53.172;8.620;2023-06-14T04:29:33;101727.41;;;22.88;40.66
81107;BME280;70588;53.172;8.620;2023-06-14T04:31:58;101735.41;;;23.24;40.36
81107;BME280;70588;53.172;8.620;2023-06-14T04:34:25;101736.66;;;23.60;39.35
81107;BME280;70588;53.172;8.620;2023-06-14T04:36:55;101738.47;;;23.94;37.63
81107;BME280;70588;53.172;8.620;2023-06-14T04:39:22;101736.31;;;24.28;38.23
81107;BME280;70588;53.172;8.620;2023-06-14T04:41:48;101730.53;;;24.62;37.24
81107;BME280;70588;53.172;8.620;2023-06-14T04:44:18;101739.34;;;24.96;36.16
81107;BME280;70588;53.172;8.620;2023-06-14T04:46:45;101741.97;;;25.23;36.21
81107;BME280;70588;53.172;8.620;2023-06-14T04:49:17;101739.38;;;25.54;35.18
81107;BME280;70588;53.172;8.620;2023-06-14T04:51:43;101736.41;;;25.76;34.12
81107;BME280;70588;53.172;8.620;2023-06-14T04:54:09;101747.84;;;26.00;33.42
81107;BME280;70588;53.172;8.620;2023-06-14T04:56:39;101745.91;;;26.21;33.80
81107;BME280;70588;53.172;8.620;2023-06-14T04:59:05;101751.72;;;26.45;33.38
81107;BME280;70588;53.172;8.620;2023-06-14T05:01:31;101741.22;;;26.68;32.64
81107;BME280;70588;53.172;8.620;2023-06-14T05:03:59;101745.63;;;26.90;32.16
81107;BME280;70588;53.172;8.620;2023-06-14T05:06:25;101753.06;;;27.15;32.25
81107;BME280;70588;53.172;8.620;2023-06-14T05:08:52;101751.88;;;27.41;32.05
81107;BME280;70588;53.172;8.620;2023-06-14T05:11:18;101752.31;;;27.69;30.65
81107;BME280;70588;53.172;8.620;2023-06-14T05:13:43;101755.53;;;27.97;30.50
81107;BME280;70588;53.172;8.620;2023-06-14T05:16:10;101755.63;;;28.21;29.91
81107;BME280;70588;53.172;8.620;2023-06-14T05:18:36;101759.97;;;28.32;29.76
81107;BME280;70588;53.172;8.620;2023-06-14T05:21:02;101761.53;;;28.49;28.91
81107;BME280;70588;53.172;8.620;2023-06-14T05:23:29;101760.59;;;28.63;28.91
81107;BME280;70588;53.172;8.620;2023-06-14T05:25:55;101762.91;;;28.80;28.37
81107;BME280;70588;53.172;8.620;2023-06-14T05:28:22;101758.34;;;28.95;28.08
81107;BME280;70588;53.172;8.620;2023-06-14T05:30:47;101760.13;;;29.10;27.88
81107;BME280;70588;53.172;8.620;2023-06-14T05:33:12;101764.41;;;29.26;27.49
81107;BME280;70588;53.172;8.620;2023-06-14T05:35:38;101759.72;;;29.46;27.66
81107;BME280;70588;53.172;8.620;2023-06-14T05:38:03;101768.84;;;29.51;26.52
81107;BME280;70588;53.172;8.620;2023-06-14T05:40:28;101767.94;;;29.56;26.70
81107;BME280;70588;53.172;8.620;2023-06-14T05:42:54;101777.06;;;29.61;26.46
81107;BME280;70588;53.172;8.620;2023-06-14T05:45:20;101770.25;;;29.73;26.74
81107;BME280;70588;53.172;8.620;2023-06-14T05:47:45;101780.13;;;29.84;26.67
81107;BME280;70588;53.172;8.620;2023-06-14T05:50:11;101780.25;;;29.93;26.70
81107;BME280;70588;53.172;8.620;2023-06-14T05:52:36;101785.53;;;29.94;25.87
81107;BME280;70588;53.172;8.620;2023-06-14T05:55:05;101786.00;;;30.01;26.04
81107;BME280;70588;53.172;8.620;2023-06-14T05:57:31;101783.66;;;30.09;25.71
81107;BME280;70588;53.172;8.620;2023-06-14T05:59:56;101792.53;;;30.11;25.78
81107;BME280;70588;53.172;8.620;2023-06-14T06:02:21;101789.75;;;30.11;25.52
81107;BME280;70588;53.172;8.620;2023-06-14T06:04:47;101784.09;;;30.16;25.85
81107;BME280;70588;53.172;8.620;2023-06-14T06:07:12;101780.69;;;30.19;25.97
81107;BME280;70588;53.172;8.620;2023-06-14T06:09:38;101802.09;;;30.23;26.18
81107;BME280;70588;53.172;8.620;2023-06-14T06:12:06;101800.28;;;30.33;25.73
81107;BME280;70588;53.172;8.620;2023-06-14T06:14:32;101794.72;;;30.33;25.59
81107;BME280;70588;53.172;8.620;2023-06-14T06:16:57;101802.50;;;30.36;25.89
81107;BME280;70588;53.172;8.620;2023-06-14T06:19:23;101809.34;;;30.44;25.51
81107;BME280;70588;53.172;8.620;2023-06-14T06:21:48;101807.06;;;30.46;25.19
81107;BME280;70588;53.172;8.620;2023-06-14T06:24:14;101810.28;;;30.53;25.18
81107;BME280;70588;53.172;8.620;2023-06-14T06:26:39;101799.13;;;30.53;25.13
81107;BME280;70588;53.172;8.620;2023-06-14T06:29:05;101801.63;;;30.54;25.01
81107;BME280;70588;53.172;8.620;2023-06-14T06:31:31;101802.44;;;30.55;25.39
81107;BME280;70588;53.172;8.620;2023-06-14T06:33:56;101807.13;;;30.59;25.57
81107;BME280;70588;53.172;8.620;2023-06-14T06:36:22;101810.66;;;30.65;25.06
81107;BME280;70588;53.172;8.620;2023-06-14T06:38:48;101809.81;;;30.65;25.02
81107;BME280;70588;53.172;8.620;2023-06-14T06:41:13;101815.59;;;30.68;24.95
81107;BME280;70588;53.172;8.620;2023-06-14T06:43:38;101801.06;;;30.71;25.00
81107;BME280;70588;53.172;8.620;2023-06-14T06:46:04;101808.81;;;30.74;25.03
81107;BME280;70588;53.172;8.620;2023-06-14T06:48:29;101810.69;;;30.79;24.69
81107;BME280;70588;53.172;8.620;2023-06-14T06:50:55;101812.94;;;30.77;24.57
81107;BME280;70588;53.172;8.620;2023-06-14T06:53:20;101818.31;;;30.73;24.20
81107;BME280;70588;53.172;8.620;2023-06-14T06:55:46;101824.59;;;30.65;24.34
81107;BME280;70588;53.172;8.620;2023-06-14T06:58:12;101821.13;;;30.54;24.59
81107;BME280;70588;53.172;8.620;2023-06-14T07:00:37;101827.38;;;30.46;24.15
81107;BME280;70588;53.172;8.620;2023-06-14T07:03:03;101821.97;;;30.36;24.66
81107;BME280;70588;53.172;8.620;2023-06-14T07:05:29;101820.25;;;30.21;24.62
81107;BME280;70588;53.172;8.620;2023-06-14T07:07:54;101823.38;;;29.95;24.48
81107;BME280;70588;53.172;8.620;2023-06-14T07:10:20;101829.53;;;29.73;24.79
81107;BME280;70588;53.172;8.620;2023-06-14T07:12:45;101828.38;;;29.50;24.55
81107;BME280;70588;53.172;8.620;2023-06-14T07:15:11;101831.13;;;29.26;24.95
81107;BME280;70588;53.172;8.620;2023-06-14T07:17:36;101831.31;;;29.06;24.80
81107;BME280;70588;53.172;8.620;2023-06-14T07:20:05;101831.72;;;28.94;25.48
81107;BME280;70588;53.172;8.620;2023-06-14T07:22:37;101839.78;;;28.61;25.76
81107;BME280;70588;53.172;8.620;2023-06-14T07:25:04;101827.66;;;28.41;26.09
81107;BME280;70588;53.172;8.620;2023-06-14T07:27:29;101826.94;;;28.25;26.34
81107;BME280;70588;53.172;8.620;2023-06-14T07:29:55;101824.56;;;28.09;25.85
81107;BME280;70588;53.172;8.620;2023-06-14T07:32:20;101822.13;;;27.97;26.26
81107;BME280;70588;53.172;8.620;2023-06-14T07:34:45;101820.75;;;27.84;26.38
81107;BME280;70588;53.172;8.620;2023-06-14T07:37:11;101818.03;;;27.74;26.83
81107;BME280;70588;53.172;8.620;2023-06-14T07:39:36;101813.66;;;27.62;26.66
81107;BME280;70588;53.172;8.620;2023-06-14T07:42:01;101815.06;;;27.55;26.78
81107;BME280;70588;53.172;8.620;2023-06-14T07:44:29;101817.28;;;27.53;26.51
81107;BME280;70588;53.172;8.620;2023-06-14T07:46:56;101810.41;;;27.35;26.78
81107;BME280;70588;53.172;8.620;2023-06-14T07:49:23;101811.81;;;27.27;27.21
81107;BME280;70588;53.172;8.620;2023-06-14T07:51:48;101813.22;;;27.24;26.99
81107;BME280;70588;53.172;8.620;2023-06-14T07:54:15;101819.84;;;27.18;27.05
81107;BME280;70588;53.172;8.620;2023-06-14T07:56:41;101819.84;;;27.13;26.63
81107;BME280;70588;53.172;8.620;2023-06-14T07:59:06;101815.16;;;27.09;26.89
81107;BME280;70588;53.172;8.620;2023-06-14T08:01:32;101801.28;;;27.03;26.96
81107;BME280;70588;53.172;8.620;2023-06-14T08:03:58;101803.53;;;26.96;26.67
81107;BME280;70588;53.172;8.620;2023-06-14T08:06:24;101810.75;;;26.92;26.79
81107;BME280;70588;53.172;8.620;2023-06-14T08:08:49;101811.28;;;26.89;25.87
81107;BME280;70588;53.172;8.620;2023-06-14T08:11:14;101811.59;;;26.82;26.65
81107;BME280;70588;53.172;8.620;2023-06-14T08:13:40;101809.34;;;26.79;26.74
81107;BME280;70588;53.172;8.620;2023-06-14T08:16:05;101810.75;;;26.77;27.09
81107;BME280;70588;53.172;8.620;2023-06-14T08:18:31;101821.28;;;26.75;26.69
81107;BME280;70588;53.172;8.620;2023-06-14T08:20:56;101823.47;;;26.67;26.86
81107;BME280;70588;53.172;8.620;2023-06-14T08:23:22;101818.50;;;26.59;26.54
81107;BME280;70588;53.172;8.620;2023-06-14T08:25:48;101840.63;;;26.54;27.06
81107;BME280;70588;53.172;8.620;2023-06-14T08:28:13;101819.59;;;26.48;27.20
81107;BME280;70588;53.172;8.620;2023-06-14T08:30:40;101824.53;;;26.46;26.83
81107;BME280;70588;53.172;8.620;2023-06-14T08:33:07;101822.59;;;26.41;27.28
81107;BME280;70588;53.172;8.620;2023-06-14T08:35:32;101816.78;;;26.38;27.42
81107;BME280;70588;53.172;8.620;2023-06-14T08:37:58;101827.31;;;26.41;27.38
81107;BME280;70588;53.172;8.620;2023-06-14T08:40:23;101824.00;;;26.39;27.59
81107;BME280;70588;53.172;8.620;2023-06-14T08:42:53;101825.94;;;26.43;27.38
81107;BME280;70588;53.172;8.620;2023-06-14T08:45:20;101814.84;;;26.28;27.69
81107;BME280;70588;53.172;8.620;2023-06-14T08:47:47;101822.31;;;26.22;28.04
81107;BME280;70588;53.172;8.620;2023-06-14T08:50:21;101822.31;;;26.22;27.88
81107;BME280;70588;53.172;8.620;2023-06-14T08:52:53;101835.59;;;26.25;27.49
81107;BME280;70588;53.172;8.620;2023-06-14T08:55:19;101838.34;;;26.10;28.29
81107;BME280;70588;53.172;8.620;2023-06-14T08:57:46;101814.50;;;26.09;28.21
81107;BME280;70588;53.172;8.620;2023-06-14T09:00:13;101816.16;;;26.05;28.07
81107;BME280;70588;53.172;8.620;2023-06-14T09:02:39;101809.53;;;26.06;28.46
81107;BME280;70588;53.172;8.620;2023-06-14T09:05:11;101821.69;;;26.05;28.58
81107;BME280;70588;53.172;8.620;2023-06-14T09:07:39;101823.09;;;26.07;28.50
81107;BME280;70588;53.172;8.620;2023-06-14T09:10:15;101820.06;;;26.19;28.55
81107;BME280;70588;53.172;8.620;2023-06-14T09:12:41;101827.25;;;26.10;28.34
81107;BME280;70588;53.172;8.620;2023-06-14T09:15:08;101826.16;;;26.11;28.31
81107;BME280;70588;53.172;8.620;2023-06-14T09:17:40;101822.00;;;26.19;28.18
81107;BME280;70588;53.172;8.620;2023-06-14T09:20:05;101822.34;;;26.43;27.70
81107;BME280;70588;53.172;8.620;2023-06-14T09:22:34;101825.06;;;26.22;28.06
81107;BME280;70588;53.172;8.620;2023-06-14T09:25:00;101825.88;;;26.13;28.29
81107;BME280;70588;53.172;8.620;2023-06-14T09:27:29;101815.09;;;26.16;28.49
81107;BME280;70588;53.172;8.620;2023-06-14T09:29:54;101830.03;;;26.10;28.47
81107;BME280;70588;53.172;8.620;2023-06-14T09:32:21;101829.72;;;26.12;28.87
81107;BME280;70588;53.172;8.620;2023-06-14T09:34:47;101823.66;;;26.10;28.82
81107;BME280;70588;53.172;8.620;2023-06-14T09:37:12;101827.53;;;26.09;28.68
81107;BME280;70588;53.172;8.620;2023-06-14T09:39:50;101818.41;;;26.23;28.63
81107;BME280;70588;53.172;8.620;2023-06-14T09:42:17;101835.00;;;26.13;28.81
81107;BME280;70588;53.172;8.620;2023-06-14T09:44:48;101817.88;;;26.16;29.10
81107;BME280;70588;53.172;8.620;2023-06-14T09:47:18;101826.16;;;26.16;28.91
81107;BME280;70588;53.172;8.620;2023-06-14T09:49:44;101804.00;;;26.11;28.66
81107;BME280;70588;53.172;8.620;2023-06-14T09:52:17;101810.94;;;26.24;28.25
81107;BME280;70588;53.172;8.620;2023-06-14T09:54:44;101815.34;;;26.20;28.50
81107;BME280;70588;53.172;8.620;2023-06-14T09:57:13;101817.88;;;26.21;28.80
81107;BME280;70588;53.172;8.620;2023-06-14T09:59:43;101826.47;;;26.30;28.85
81107;BME280;70588;53.172;8.620;2023-06-14T10:04:43;101819.81;;;26.26;28.25
81107;BME280;70588;53.172;8.620;2023-06-14T10:07:14;101831.44;;;26.23;28.29
81107;BME280;70588;53.172;8.620;2023-06-14T10:09:43;101813.72;;;26.19;28.64
81107;BME280;70588;53.172;8.620;2023-06-14T10:15:54;101806.25;;;26.30;28.32
81107;BME280;70588;53.172;8.620;2023-06-14T10:18:49;101813.47;;;26.31;28.32
81107;BME280;70588;53.172;8.620;2023-06-14T10:21:23;101817.59;;;26.23;28.31
81107;BME280;70588;53.172;8.620;2023-06-14T10:23:51;101822.00;;;26.14;28.22
81107;BME280;70588;53.172;8.620;2023-06-14T10:29:08;101794.91;;;26.21;28.25
81107;BME280;70588;53.172;8.620;2023-06-14T10:31:48;101814.28;;;26.31;27.93
81107;BME280;70588;53.172;8.620;2023-06-14T10:34:27;101807.91;;;26.36;28.06
81107;BME280;70588;53.172;8.620;2023-06-14T10:37:12;101801.84;;;26.39;28.09
81107;BME280;70588;53.172;8.620;2023-06-14T10:39:40;101806.56;;;26.28;28.46
81107;BME280;70588;53.172;8.620;2023-06-14T10:42:07;101808.16;;;26.24;28.19
81107;BME280;70588;53.172;8.620;2023-06-14T10:49:53;101817.06;;;26.31;28.08
81107;BME280;70588;53.172;8.620;2023-06-14T10:52:24;101800.72;;;26.35;28.31
81107;BME280;70588;53.172;8.620;2023-06-14T10:55:10;101800.75;;;26.45;27.91
81107;BME280;70588;53.172;8.620;2023-06-14T11:00:13;101791.59;;;26.39;27.67
81107;BME280;70588;53.172;8.620;2023-06-14T11:08:23;101778.09;;;26.58;27.48
81107;BME280;70588;53.172;8.620;2023-06-14T11:10:54;101783.03;;;26.56;27.40
81107;BME280;70588;53.172;8.620;2023-06-14T11:13:24;101774.75;;;26.61;27.79
81107;BME280;70588;53.172;8.620;2023-06-14T11:15:50;101792.75;;;26.59;27.55
81107;BME280;70588;53.172;8.620;2023-06-14T11:18:18;101779.19;;;26.62;27.10
81107;BME280;70588;53.172;8.620;2023-06-14T11:20:46;101783.03;;;26.72;26.93
81107;BME280;70588;53.172;8.620;2023-06-14T11:23:12;101777.22;;;26.68;26.53
81107;BME280;70588;53.172;8.620;2023-06-14T11:25:37;101771.97;;;26.72;26.37
81107;BME280;70588;53.172;8.620;2023-06-14T11:28:03;101769.75;;;26.74;26.77
81107;BME280;70588;53.172;8.620;2023-06-14T11:30:28;101769.22;;;26.77;26.56
81107;BME280;70588;53.172;8.620;2023-06-14T11:32:54;101763.09;;;26.80;26.80
81107;BME280;70588;53.172;8.620;2023-06-14T11:35:24;101754.22;;;26.88;26.18
81107;BME280;70588;53.172;8.620;2023-06-14T11:37:56;101747.59;;;26.94;26.26
81107;BME280;70588;53.172;8.620;2023-06-14T11:40:25;101759.22;;;26.96;26.11
81107;BME280;70588;53.172;8.620;2023-06-14T11:42:58;101754.19;;;27.03;26.30
81107;BME280;70588;53.172;8.620;2023-06-14T11:45:24;101744.78;;;26.99;26.31
81107;BME280;70588;53.172;8.620;2023-06-14T11:47:50;101746.44;;;27.05;26.49
81107;BME280;70588;53.172;8.620;2023-06-14T11:50:15;101751.97;;;27.11;26.12
81107;BME280;70588;53.172;8.620;2023-06-14T11:52:41;101753.34;;;27.13;25.62
81107;BME280;70588;53.172;8.620;2023-06-14T11:55:06;101750.56;;;27.18;25.43
81107;BME280;70588;53.172;8.620;2023-06-14T11:57:36;101749.72;;;27.28;25.43
81107;BME280;70588;53.172;8.620;2023-06-14T12:00:06;101743.59;;;27.31;25.76
81107;BME280;70588;53.172;8.620;2023-06-14T12:02:38;101746.38;;;27.31;25.52
81107;BME280;70588;53.172;8.620;2023-06-14T12:05:05;101742.22;;;27.34;25.49
81107;BME280;70588;53.172;8.620;2023-06-14T12:07:36;101751.34;;;27.39;25.69
81107;BME280;70588;53.172;8.620;2023-06-14T12:12:28;101739.09;;;27.45;25.52
81107;BME280;70588;53.172;8.620;2023-06-14T12:14:56;101759.59;;;27.50;25.85
81107;BME280;70588;53.172;8.620;2023-06-14T12:17:22;101751.28;;;27.50;25.61
81107;BME280;70588;53.172;8.620;2023-06-14T12:19:48;101736.59;;;27.49;25.57
81107;BME280;70588;53.172;8.620;2023-06-14T12:22:15;101747.41;;;27.51;25.40
81107;BME280;70588;53.172;8.620;2023-06-14T12:24:44;101734.59;;;27.60;25.06
81107;BME280;70588;53.172;8.620;2023-06-14T12:27:10;101738.25;;;27.55;24.92
81107;BME280;70588;53.172;8.620;2023-06-14T12:29:40;101746.28;;;27.57;25.06
81107;BME280;70588;53.172;8.620;2023-06-14T12:32:09;101746.25;;;27.62;25.40
81107;BME280;70588;53.172;8.620;2023-06-14T12:34:34;101741.22;;;27.64;24.94
81107;BME280;70588;53.172;8.620;2023-06-14T12:37:00;101741.50;;;27.68;24.91
81107;BME280;70588;53.172;8.620;2023-06-14T12:39:26;101740.63;;;27.72;24.71
81107;BME280;70588;53.172;8.620;2023-06-14T12:41:51;101743.13;;;27.74;24.71
81107;BME280;70588;53.172;8.620;2023-06-14T12:44:16;101734.25;;;27.77;24.83
81107;BME280;70588;53.172;8.620;2023-06-14T12:46:42;101734.19;;;27.82;25.08
81107;BME280;70588;53.172;8.620;2023-06-14T12:49:11;101740.25;;;27.94;25.37
81107;BME280;70588;53.172;8.620;2023-06-14T12:51:38;101731.09;;;27.99;25.14
81107;BME280;70588;53.172;8.620;2023-06-14T12:54:04;101745.22;;;28.02;25.36
81107;BME280;70588;53.172;8.620;2023-06-14T12:56:29;101742.69;;;28.06;25.11
81107;BME280;70588;53.172;8.620;2023-06-14T12:58:55;101738.25;;;28.05;25.15
81107;BME280;70588;53.172;8.620;2023-06-14T13:01:20;101732.44;;;28.07;25.33
81107;BME280;70588;53.172;8.620;2023-06-14T13:03:46;101732.72;;;28.05;25.10
81107;BME280;70588;53.172;8.620;2023-06-14T13:06:12;101739.09;;;28.00;24.68
81107;BME280;70588;53.172;8.620;2023-06-14T13:08:38;101739.69;;;28.02;25.03
81107;BME280;70588;53.172;8.620;2023-06-14T13:11:03;101738.81;;;28.02;25.14
81107;BME280;70588;53.172;8.620;2023-06-14T13:13:28;101728.00;;;28.00;25.37
81107;BME280;70588;53.172;8.620;2023-06-14T13:15:54;101733.88;;;27.99;25.82